Time;durP1;ratioP1;P1;durP2;ratioP2;P2;SDS_P1;SDS_P2;PMS_P1;PMS_P2;Temp;Humidity;BMP_temperature;BMP_pressure;BME280_temperature;BME280_humidity;BME280_pressure;Samples;Min_cycle;Max_cycle;Signal;HPM_P1;HPM_P2
2021/05/31 00:01:46;;;;;;;8.23;5.45;;;333.50;2329.60;;;;;;5086464;28;20044;-80
2021/05/31 00:04:12;;;;;;;7.57;6.03;;;333.40;2329.60;;;;;;5086234;28;20095;-80
2021/05/31 00:07:18;;;;;;;6.80;6.05;;;333.40;2329.60;;;;;;5090081;28;20060;-80
2021/05/31 00:09:44;;;;;;;8.57;5.57;;;333.40;2329.60;;;;;;5089581;28;20484;-80
2021/05/31 00:12:13;;;;;;;7.90;6.03;;;333.40;2329.60;;;;;;5079077;28;20021;-80
2021/05/31 00:14:38;;;;;;;6.80;5.53;;;333.40;2329.60;;;;;;5070295;28;20025;-80
2021/05/31 00:17:05;;;;;;;7.53;5.70;;;333.40;2329.60;;;;;;5071287;28;20046;-80
2021/05/31 00:19:31;;;;;;;8.77;5.50;;;333.40;2329.60;;;;;;5070219;28;20031;-80
2021/05/31 00:21:57;;;;;;;7.38;5.68;;;333.40;2329.60;;;;;;5079192;28;20024;-80
2021/05/31 00:24:22;;;;;;;7.63;5.47;;;333.40;2329.60;;;;;;5077381;28;20048;-80
2021/05/31 00:26:48;;;;;;;7.78;6.00;;;333.40;2329.60;;;;;;5071209;28;20078;-80
2021/05/31 00:29:16;;;;;;;9.05;6.07;;;333.40;2329.60;;;;;;5070309;28;20036;-79
2021/05/31 00:31:42;;;;;;;9.90;7.40;;;333.40;2329.60;;;;;;5071105;28;20082;-79
2021/05/31 00:34:07;;;;;;;12.35;9.43;;;333.40;2329.60;;;;;;5072579;28;20029;-79
2021/05/31 00:36:33;;;;;;;14.25;11.02;;;333.40;2329.60;;;;;;5075443;28;20781;-78
2021/05/31 00:38:59;;;;;;;19.75;11.90;;;333.50;2329.60;;;;;;5092729;28;20492;-79
2021/05/31 00:41:25;;;;;;;15.13;9.35;;;333.50;2329.60;;;;;;5094655;28;20031;-79
2021/05/31 00:43:51;;;;;;;15.55;9.27;;;333.50;2329.60;;;;;;5091642;28;20020;-80
2021/05/31 00:46:17;;;;;;;10.85;8.40;;;333.40;2329.60;;;;;;5079405;28;20020;-81
2021/05/31 00:48:42;;;;;;;14.23;9.55;;;333.40;2329.60;;;;;;5097947;28;20414;-80
2021/05/31 00:51:11;;;;;;;13.02;8.68;;;333.40;2329.60;;;;;;5101934;28;20020;-80
2021/05/31 00:53:37;;;;;;;12.73;8.85;;;333.40;2329.60;;;;;;5091742;28;20020;-80
2021/05/31 00:56:05;;;;;;;13.93;8.65;;;333.40;2329.60;;;;;;5077645;28;20055;-80
2021/05/31 00:58:31;;;;;;;11.40;9.55;;;333.30;2329.60;;;;;;5090106;28;20024;-81
2021/05/31 01:01:00;;;;;;;13.38;7.68;;;333.30;2329.60;;;;;;5076114;28;20104;-81
2021/05/31 01:03:26;;;;;;;12.43;8.60;;;333.30;2329.60;;;;;;5088154;28;20017;-80
2021/05/31 01:05:54;;;;;;;11.00;8.80;;;333.50;2329.60;;;;;;5094006;28;20048;-80
2021/05/31 01:08:34;;;;;;;10.07;8.52;;;333.30;2329.60;;;;;;5089183;28;20022;-80
2021/05/31 01:11:07;;;;;;;11.75;8.32;;;333.30;2329.60;;;;;;5094154;28;20035;-79
2021/05/31 01:13:48;;;;;;;17.15;10.27;;;333.30;2329.60;;;;;;5094231;28;20021;-79
2021/05/31 01:16:24;;;;;;;11.48;9.02;;;333.30;2329.60;;;;;;5092997;28;20020;-80
2021/05/31 01:18:50;;;;;;;;;;;333.30;2329.60;;;;;;5092711;28;20468;-80
2021/05/31 01:21:25;;;;;;;11.43;7.50;;;333.30;2329.60;;;;;;5091984;28;19904;-81
2021/05/31 01:24:02;;;;;;;12.00;7.28;;;333.20;2329.60;;;;;;5073079;28;20515;-80
2021/05/31 01:26:43;;;;;;;8.63;5.95;;;333.20;2329.60;;;;;;5075732;28;20051;-81
2021/05/31 01:29:11;;;;;;;10.02;6.88;;;333.30;2329.60;;;;;;5082504;28;20536;-81
2021/05/31 01:31:43;;;;;;;9.88;6.72;;;333.30;2329.60;;;;;;5087829;28;20127;-81
2021/05/31 01:34:11;;;;;;;8.77;7.00;;;333.20;2329.60;;;;;;5084546;28;20051;-81
2021/05/31 01:36:52;;;;;;;12.23;6.88;;;333.20;2329.60;;;;;;5081526;28;20099;-80
2021/05/31 01:39:22;;;;;;;9.98;7.03;;;333.20;2329.60;;;;;;5093686;28;20058;-81
2021/05/31 01:41:49;;;;;;;7.68;6.05;;;333.20;2329.60;;;;;;5079533;28;20020;-80
2021/05/31 01:44:17;;;;;;;6.57;5.40;;;333.20;2329.60;;;;;;5083746;28;20028;-81
2021/05/31 01:46:45;;;;;;;8.68;6.72;;;333.10;2329.60;;;;;;5076725;28;20013;-79
2021/05/31 01:49:12;;;;;;;9.15;6.47;;;333.10;2329.60;;;;;;5085284;28;20033;-79
2021/05/31 01:51:39;;;;;;;7.00;5.50;;;333.10;2329.60;;;;;;5089355;28;20020;-80
2021/05/31 01:54:10;;;;;;;9.13;6.30;;;333.00;2329.60;;;;;;5085559;28;20031;-80
2021/05/31 01:56:37;;;;;;;10.55;6.68;;;333.00;2329.60;;;;;;5087838;28;20384;-80
2021/05/31 01:59:05;;;;;;;10.50;7.78;;;333.00;2329.60;;;;;;5087024;28;20029;-80
2021/05/31 02:01:33;;;;;;;10.93;8.43;;;333.00;2329.60;;;;;;5074613;28;20024;-79
2021/05/31 02:03:59;;;;;;;10.02;7.82;;;333.00;2329.60;;;;;;5080075;28;20043;-80
2021/05/31 02:06:25;;;;;;;10.30;7.68;;;333.00;2329.60;;;;;;5092064;28;20411;-79
2021/05/31 02:08:51;;;;;;;11.70;8.50;;;333.00;2329.60;;;;;;5091506;28;20028;-79
2021/05/31 02:11:35;;;;;;;11.95;9.70;;;333.00;2329.60;;;;;;5074776;28;20020;-80
2021/05/31 02:14:07;;;;;;;12.75;9.13;;;332.90;2329.60;;;;;;5083619;28;20024;-79
2021/05/31 02:16:44;;;;;;;12.75;8.68;;;332.90;2329.60;;;;;;5091271;28;20038;-79
2021/05/31 02:19:12;;;;;;;12.27;8.93;;;332.90;2329.60;;;;;;5091743;28;20024;-80
2021/05/31 02:21:40;;;;;;;12.32;8.73;;;332.80;2329.60;;;;;;5092271;28;20027;-79
2021/05/31 02:24:07;;;;;;;11.10;7.50;;;332.80;2329.60;;;;;;5080770;28;20519;-79
2021/05/31 02:26:35;;;;;;;11.82;7.38;;;332.80;2329.60;;;;;;5088195;28;20021;-79
2021/05/31 02:29:01;;;;;;;11.65;6.93;;;332.80;2329.60;;;;;;5091291;28;20102;-79
2021/05/31 02:31:27;;;;;;;12.95;7.07;;;332.80;2329.60;;;;;;5080802;28;20024;-79
2021/05/31 02:33:53;;;;;;;10.60;6.85;;;332.80;2329.60;;;;;;5091161;28;20031;-79
2021/05/31 02:36:18;;;;;;;9.80;7.05;;;332.80;2329.60;;;;;;5092844;28;20081;-79
2021/05/31 02:38:45;;;;;;;11.02;7.15;;;308.10;2304.00;;;;;;5076693;28;20028;-79
2021/05/31 02:41:11;;;;;;;11.43;6.85;;;308.00;2304.00;;;;;;5092988;28;20016;-79
2021/05/31 02:43:37;;;;;;;10.70;6.80;;;308.00;2304.00;;;;;;5091075;28;20566;-78
2021/05/31 02:46:03;;;;;;;8.90;6.80;;;308.10;2304.00;;;;;;5092848;28;20024;-79
2021/05/31 02:48:29;;;;;;;10.25;6.40;;;308.00;2304.00;;;;;;5089232;28;20481;-79
2021/05/31 02:50:56;;;;;;;10.88;6.80;;;308.00;2304.00;;;;;;5091383;28;20020;-78
2021/05/31 02:53:23;;;;;;;11.15;6.25;;;308.00;2304.00;;;;;;5092005;28;20028;-78
2021/05/31 02:55:49;;;;;;;12.20;6.88;;;308.00;2304.00;;;;;;5091184;28;20380;-79
2021/05/31 02:58:15;;;;;;;9.65;6.90;;;308.00;2304.00;;;;;;5091414;28;20027;-80
2021/05/31 03:00:40;;;;;;;12.18;7.65;;;308.10;2304.00;;;;;;5083691;28;20028;-79
2021/05/31 03:03:07;;;;;;;13.57;6.53;;;308.00;2304.00;;;;;;5085562;28;20090;-80
2021/05/31 03:05:33;;;;;;;9.00;6.43;;;308.10;2304.00;;;;;;5080136;28;20384;-79
2021/05/31 03:07:59;;;;;;;12.30;7.88;;;308.00;2304.00;;;;;;5083102;28;20076;-79
2021/05/31 03:10:27;;;;;;;9.70;6.20;;;308.00;2304.00;;;;;;5091126;28;20024;-79
2021/05/31 03:12:53;;;;;;;12.48;5.97;;;308.10;2304.00;;;;;;5089030;28;20035;-79
2021/05/31 03:15:19;;;;;;;7.93;6.25;;;332.80;2329.60;;;;;;5071634;28;20029;-80
2021/05/31 03:17:47;;;;;;;8.50;6.57;;;332.80;2329.60;;;;;;5087719;28;20016;-79
2021/05/31 03:20:14;;;;;;;10.52;7.15;;;332.80;2329.60;;;;;;5084122;28;20033;-79
2021/05/31 03:22:39;;;;;;;9.27;6.50;;;332.80;2329.60;;;;;;5070520;28;20031;-78
2021/05/31 03:25:06;;;;;;;14.25;6.82;;;332.80;2329.60;;;;;;5090965;28;20404;-79
2021/05/31 03:27:32;;;;;;;7.70;6.63;;;332.90;2329.60;;;;;;5078273;28;20025;-79
2021/05/31 03:29:58;;;;;;;9.68;6.32;;;333.00;2329.60;;;;;;5088847;28;20070;-78
2021/05/31 03:32:24;;;;;;;8.77;5.95;;;333.00;2329.60;;;;;;5091752;28;20058;-79
2021/05/31 03:34:50;;;;;;;10.57;6.90;;;333.00;2329.60;;;;;;5075793;28;20025;-79
2021/05/31 03:37:16;;;;;;;8.10;6.50;;;333.00;2329.60;;;;;;5078465;28;20431;-80
2021/05/31 03:39:42;;;;;;;8.27;5.78;;;333.00;2329.60;;;;;;5090613;28;20032;-81
2021/05/31 03:42:08;;;;;;;6.95;5.47;;;333.00;2329.60;;;;;;5091687;28;20502;-79
2021/05/31 03:44:35;;;;;;;8.32;6.20;;;333.00;2329.60;;;;;;5091939;28;20099;-79
2021/05/31 03:47:00;;;;;;;10.07;6.22;;;333.00;2329.60;;;;;;5090065;28;20069;-80
2021/05/31 03:49:26;;;;;;;8.02;5.95;;;333.10;2329.60;;;;;;5100915;28;20031;-79
2021/05/31 03:51:52;;;;;;;8.48;5.93;;;333.10;2329.60;;;;;;5089317;28;20069;-79
2021/05/31 03:54:18;;;;;;;7.60;5.05;;;333.10;2329.60;;;;;;5085577;28;20666;-79
2021/05/31 03:56:43;;;;;;;6.55;5.60;;;333.20;2329.60;;;;;;5087338;28;20059;-79
2021/05/31 03:59:09;;;;;;;7.20;5.13;;;333.20;2329.60;;;;;;5091296;28;20029;-79
2021/05/31 04:01:35;;;;;;;6.35;5.25;;;333.30;2329.60;;;;;;5084137;28;20032;-79
2021/05/31 04:04:01;;;;;;;6.45;4.13;;;333.40;2329.60;;;;;;5084462;28;20499;-79
2021/05/31 04:11:45;;;;;;;5.57;4.00;;;333.60;2329.60;;;;;;5085418;28;20404;-79
2021/05/31 04:14:14;;;;;;;4.30;3.13;;;358.40;2329.60;;;;;;5085773;28;20142;-79
2021/05/31 04:16:44;;;;;;;4.95;3.53;;;358.40;2329.60;;;;;;5083067;28;20462;-79
2021/05/31 04:19:11;;;;;;;7.15;4.20;;;358.50;2329.60;;;;;;5095357;28;20468;-79
2021/05/31 04:21:39;;;;;;;6.70;4.22;;;358.60;2329.60;;;;;;5084380;28;20035;-79
2021/05/31 04:24:05;;;;;;;9.00;3.78;;;358.70;2329.60;;;;;;5091160;28;20024;-79
2021/05/31 04:26:33;;;;;;;5.97;3.38;;;358.60;2329.60;;;;;;5086202;28;20031;-79
2021/05/31 04:28:59;;;;;;;7.97;4.68;;;358.60;2329.60;;;;;;5087269;28;20024;-79
2021/05/31 04:31:25;;;;;;;8.23;5.95;;;358.70;2329.60;;;;;;5089518;28;20077;-78
2021/05/31 04:33:51;;;;;;;6.43;5.15;;;358.70;2329.60;;;;;;5090950;28;20077;-78
2021/05/31 04:36:18;;;;;;;9.10;6.25;;;358.60;2329.60;;;;;;5085465;28;20036;-79
2021/05/31 04:38:43;;;;;;;5.57;4.60;;;358.60;2329.60;;;;;;5087514;28;20116;-78
2021/05/31 04:41:09;;;;;;;7.22;5.20;;;358.60;2329.60;;;;;;5086444;28;20143;-79
2021/05/31 04:43:35;;;;;;;7.32;4.78;;;358.60;2329.60;;;;;;5086926;28;20048;-78
2021/05/31 04:46:03;;;;;;;6.20;5.10;;;358.70;2329.60;;;;;;5085796;28;20039;-79
2021/05/31 04:48:32;;;;;;;6.63;4.57;;;358.80;2329.60;;;;;;5087288;28;20025;-79
2021/05/31 04:51:01;;;;;;;6.03;3.72;;;358.80;2329.60;;;;;;5087078;28;20033;-79
2021/05/31 04:53:28;;;;;;;5.78;4.00;;;358.80;2329.60;;;;;;5086758;28;20044;-79
2021/05/31 04:55:56;;;;;;;5.30;3.92;;;358.90;2329.60;;;;;;5089990;28;20128;-78
2021/05/31 04:58:22;;;;;;;6.00;4.03;;;358.90;2329.60;;;;;;5083147;28;20051;-79
2021/05/31 05:00:49;;;;;;;6.40;3.38;;;358.90;2329.60;;;;;;5082536;28;20032;-78
2021/05/31 05:03:15;;;;;;;6.75;4.97;;;358.80;2329.60;;;;;;5088225;28;20721;-78
2021/05/31 05:05:40;;;;;;;5.55;4.43;;;358.90;2329.60;;;;;;5083122;28;20047;-78
2021/05/31 05:08:07;;;;;;;7.22;5.85;;;359.10;2329.60;;;;;;5087100;28;20115;-80
2021/05/31 05:10:33;;;;;;;9.23;6.30;;;359.10;2329.60;;;;;;5083916;28;20024;-78
2021/05/31 05:12:59;;;;;;;8.52;6.22;;;359.20;2329.60;;;;;;5103080;28;20016;-79
2021/05/31 05:15:25;;;;;;;8.48;5.18;;;359.20;2329.60;;;;;;5085485;28;20035;-79
2021/05/31 05:17:53;;;;;;;5.40;4.30;;;384.10;2329.60;;;;;;5084230;28;20102;-78
2021/05/31 05:20:20;;;;;;;6.85;4.10;;;384.30;2329.60;;;;;;5085015;28;20506;-78
2021/05/31 05:22:47;;;;;;;5.10;3.13;;;384.60;2329.60;;;;;;5090802;28;20024;-79
2021/05/31 05:25:13;;;;;;;4.13;2.90;;;384.70;2329.60;;;;;;5089699;28;20110;-80
2021/05/31 05:27:42;;;;;;;4.47;3.28;;;384.90;2329.60;;;;;;5082968;28;20438;-79
2021/05/31 05:30:09;;;;;;;5.43;3.00;;;384.90;2329.60;;;;;;5081822;28;20119;-83
2021/05/31 05:32:36;;;;;;;3.95;3.00;;;409.60;2355.20;;;;;;5083950;28;20035;-80
2021/05/31 05:46:22;;;;;;;4.90;2.67;;;410.20;2355.20;;;;;;5028379;28;20640;-79
2021/05/31 05:48:50;;;;;;;4.88;3.53;;;410.20;2355.20;;;;;;5029413;28;20204;-79
2021/05/31 05:51:15;;;;;;;5.78;2.75;;;410.20;2355.20;;;;;;5013546;28;20040;-79
2021/05/31 05:53:42;;;;;;;3.28;2.45;;;410.20;2355.20;;;;;;5027316;28;20045;-79
2021/05/31 05:56:12;;;;;;;3.92;2.53;;;410.30;2355.20;;;;;;5008253;28;20040;-79
2021/05/31 05:58:38;;;;;;;4.25;2.35;;;410.30;2355.20;;;;;;5029528;28;20525;-80
2021/05/31 06:01:06;;;;;;;3.80;2.83;;;410.30;2355.20;;;;;;5012110;28;20033;-80
2021/05/31 06:03:31;;;;;;;25.95;19.08;;;410.30;2355.20;;;;;;5023501;28;20048;-81
2021/05/31 06:05:59;;;;;;;3.65;3.15;;;410.20;2355.20;;;;;;5031289;28;20179;-82
2021/05/31 06:08:25;;;;;;;3.88;2.40;;;409.90;2355.20;;;;;;5027945;28;20104;-82
2021/05/31 06:10:51;;;;;;;3.55;2.25;;;409.90;2355.20;;;;;;5009531;28;20057;-82
2021/05/31 06:13:16;;;;;;;3.70;2.03;;;409.70;2355.20;;;;;;5011160;28;20022;-82
2021/05/31 06:15:42;;;;;;;4.97;3.08;;;409.60;2355.20;;;;;;5027231;28;20526;-82
2021/05/31 06:18:08;;;;;;;3.15;2.33;;;409.60;2355.20;;;;;;5064236;28;20032;-82
2021/05/31 06:20:35;;;;;;;4.97;2.10;;;384.90;2329.60;;;;;;5070096;28;20032;-83
2021/05/31 06:23:05;;;;;;;3.90;2.60;;;384.90;2329.60;;;;;;5068523;28;20029;-83
2021/05/31 06:25:32;;;;;;;3.80;2.92;;;409.60;2355.20;;;;;;5058252;28;20029;-82
2021/05/31 06:27:59;;;;;;;4.82;2.20;;;409.60;2355.20;;;;;;5071810;28;20012;-82
2021/05/31 06:30:25;;;;;;;4.20;2.05;;;409.70;2355.20;;;;;;5068966;28;20130;-82
2021/05/31 06:32:51;;;;;;;5.72;2.40;;;409.70;2355.20;;;;;;5058176;28;20036;-82
2021/05/31 06:35:17;;;;;;;3.65;1.85;;;409.80;2355.20;;;;;;5061672;28;20404;-82
2021/05/31 06:37:43;;;;;;;4.18;2.05;;;409.80;2355.20;;;;;;5060814;28;20049;-82
2021/05/31 06:40:11;;;;;;;4.35;2.33;;;409.70;2355.20;;;;;;5065811;28;20041;-82
2021/05/31 06:42:42;;;;;;;4.20;2.33;;;409.70;2355.20;;;;;;5063214;28;20043;-82
2021/05/31 06:45:11;;;;;;;3.97;2.17;;;409.70;2355.20;;;;;;5059894;28;20045;-82
2021/05/31 06:47:37;;;;;;;4.20;2.13;;;409.70;2355.20;;;;;;5072608;28;20016;-82
2021/05/31 06:50:05;;;;;;;7.15;2.25;;;409.80;2355.20;;;;;;5071743;28;20507;-82
2021/05/31 06:52:31;;;;;;;3.45;2.20;;;409.90;2355.20;;;;;;5071105;28;20472;-82
2021/05/31 06:54:57;;;;;;;5.35;2.42;;;410.20;2355.20;;;;;;5071149;28;20123;-82
2021/05/31 06:57:23;;;;;;;4.07;2.17;;;409.90;2355.20;;;;;;5070928;28;20115;-82
2021/05/31 06:59:49;;;;;;;4.63;2.53;;;410.00;2355.20;;;;;;5068426;28;20040;-82
2021/05/31 07:02:15;;;;;;;4.22;2.63;;;409.90;2355.20;;;;;;5069333;28;20060;-82
2021/05/31 07:04:40;;;;;;;3.90;2.45;;;410.00;2355.20;;;;;;5070221;28;20032;-82
2021/05/31 07:07:06;;;;;;;3.30;2.00;;;410.10;2355.20;;;;;;5078504;28;20123;-82
2021/05/31 07:09:32;;;;;;;3.95;2.38;;;410.10;2355.20;;;;;;5088809;28;20082;-81
2021/05/31 07:11:59;;;;;;;5.63;2.95;;;410.40;2355.20;;;;;;5091166;28;20048;-81
2021/05/31 07:14:33;;;;;;;3.95;2.33;;;435.20;2355.20;;;;;;5086930;28;20444;-81
2021/05/31 07:17:00;;;;;;;5.47;2.58;;;435.70;2355.20;;;;;;5083329;28;20020;-82
2021/05/31 07:19:26;;;;;;;3.63;2.42;;;435.80;2355.20;;;;;;5092018;28;20036;-83
2021/05/31 07:21:52;;;;;;;3.67;1.80;;;436.00;2355.20;;;;;;5088151;28;20039;-82
2021/05/31 07:24:17;;;;;;;3.50;2.30;;;460.90;2380.80;;;;;;5099923;28;20024;-83
2021/05/31 07:26:43;;;;;;;3.58;2.13;;;461.00;2380.80;;;;;;5084967;28;20020;-82
2021/05/31 07:29:09;;;;;;;3.05;2.20;;;461.00;2380.80;;;;;;5084567;28;20063;-82
2021/05/31 07:31:35;;;;;;;4.47;2.67;;;461.00;2380.80;;;;;;5097923;28;20369;-82
2021/05/31 07:34:01;;;;;;;6.80;2.70;;;460.90;2380.80;;;;;;5086321;28;20081;-82
2021/05/31 07:36:27;;;;;;;6.95;2.95;;;436.10;2355.20;;;;;;5083037;28;20032;-80
2021/05/31 07:38:53;;;;;;;4.80;3.13;;;435.90;2355.20;;;;;;5080573;28;20040;-81
2021/05/31 07:41:19;;;;;;;9.23;3.28;;;435.80;2355.20;;;;;;5081475;28;20074;-79
2021/05/31 07:43:45;;;;;;;6.07;3.13;;;435.50;2355.20;;;;;;5083115;28;20027;-81
2021/05/31 07:46:13;;;;;;;4.95;3.53;;;435.40;2355.20;;;;;;5091598;28;20028;-79
2021/05/31 07:48:41;;;;;;;4.57;3.63;;;435.20;2355.20;;;;;;5087997;28;20024;-86
2021/05/31 07:51:43;;;;;;;5.07;3.70;;;410.40;2355.20;;;;;;5089731;28;20027;-86
2021/05/31 07:54:00;;;;;;;7.05;4.78;;;410.30;2355.20;;;;;;5088117;28;20503;-86
2021/05/31 07:56:27;;;;;;;5.45;4.20;;;410.10;2355.20;;;;;;5089298;28;20041;-84
2021/05/31 07:58:54;;;;;;;5.28;3.20;;;409.90;2355.20;;;;;;5086196;28;20039;-84
2021/05/31 08:01:21;;;;;;;7.35;3.90;;;409.60;2355.20;;;;;;5084624;28;20423;-84
2021/05/31 08:03:47;;;;;;;5.18;3.92;;;384.80;2329.60;;;;;;5093593;28;20464;-83
2021/05/31 08:06:14;;;;;;;3.78;2.90;;;384.50;2329.60;;;;;;5094776;28;20036;-82
2021/05/31 08:08:42;;;;;;;4.50;3.25;;;384.30;2329.60;;;;;;5103020;27;20111;-84
2021/05/31 08:11:08;;;;;;;5.78;3.50;;;384.20;2329.60;;;;;;5090018;28;20094;-84
2021/05/31 08:13:34;;;;;;;4.85;3.42;;;384.10;2329.60;;;;;;5083297;28;20024;-84
2021/05/31 08:16:00;;;;;;;5.15;3.75;;;384.00;2329.60;;;;;;5089665;28;20016;-84
2021/05/31 08:18:26;;;;;;;5.13;3.58;;;384.10;2329.60;;;;;;5088706;28;20032;-81
2021/05/31 08:20:52;;;;;;;4.07;3.05;;;384.20;2329.60;;;;;;5087269;28;20381;-81
2021/05/31 08:23:18;;;;;;;3.80;2.97;;;384.30;2329.60;;;;;;5090373;28;20027;-82
2021/05/31 08:25:44;;;;;;;6.75;3.95;;;384.30;2329.60;;;;;;5106844;28;20114;-80
2021/05/31 08:28:10;;;;;;;6.85;3.97;;;384.50;2329.60;;;;;;5091786;28;20103;-83
2021/05/31 08:30:37;;;;;;;7.03;4.47;;;384.50;2329.60;;;;;;5094318;28;20017;-82
2021/05/31 08:33:06;;;;;;;4.93;3.72;;;384.50;2329.60;;;;;;5092740;28;20024;-84
2021/05/31 08:35:33;;;;;;;6.20;4.00;;;384.50;2329.60;;;;;;5086598;28;20028;-86
2021/05/31 08:37:59;;;;;;;5.88;4.57;;;384.50;2329.60;;;;;;5085990;28;20071;-86
2021/05/31 08:40:25;;;;;;;4.28;3.35;;;384.50;2329.60;;;;;;5095216;28;20048;-86
2021/05/31 08:42:51;;;;;;;5.50;4.43;;;384.50;2329.60;;;;;;5092769;28;20028;-87
2021/05/31 08:45:20;;;;;;;5.47;4.35;;;384.50;2329.60;;;;;;5098167;28;20146;-86
2021/05/31 08:47:51;;;;;;;5.68;4.28;;;384.50;2329.60;;;;;;5099706;28;20605;-85
2021/05/31 08:50:19;;;;;;;5.38;4.00;;;384.60;2329.60;;;;;;5095165;28;20029;-82
2021/05/31 08:52:46;;;;;;;4.78;3.13;;;384.70;2329.60;;;;;;5092136;28;20032;-83
2021/05/31 08:55:15;;;;;;;5.15;2.30;;;384.90;2329.60;;;;;;5096014;28;20503;-83
2021/05/31 08:57:41;;;;;;;4.55;2.47;;;384.90;2329.60;;;;;;5094271;28;20032;-83
2021/05/31 09:00:13;;;;;;;4.65;2.40;;;384.70;2329.60;;;;;;5081086;28;20112;-82
2021/05/31 09:02:40;;;;;;;3.95;2.67;;;384.60;2329.60;;;;;;5090341;28;20024;-83
2021/05/31 09:05:07;;;;;;;4.97;3.78;;;384.40;2329.60;;;;;;5109124;28;20016;-82
2021/05/31 09:07:33;;;;;;;5.95;5.35;;;384.40;2329.60;;;;;;5093764;28;20552;-82
2021/05/31 09:10:00;;;;;;;5.70;3.40;;;384.60;2329.60;;;;;;5094390;28;20040;-82
2021/05/31 09:12:36;;;;;;;6.38;3.60;;;384.60;2329.60;;;;;;5090220;28;20036;-82
2021/05/31 09:15:10;;;;;;;4.90;3.33;;;384.50;2329.60;;;;;;5085875;28;20307;-82
2021/05/31 09:17:40;;;;;;;6.50;3.20;;;384.90;2329.60;;;;;;5091306;28;20035;-81
2021/05/31 09:20:07;;;;;;;5.57;3.53;;;384.90;2329.60;;;;;;5084069;28;20024;-82
2021/05/31 09:22:55;;;;;;;3.35;2.30;;;409.80;2355.20;;;;;;5091888;28;20020;-82
2021/05/31 09:25:32;;;;;;;5.35;3.80;;;409.90;2355.20;;;;;;5086893;28;20020;-82
2021/05/31 09:28:01;;;;;;;6.32;4.55;;;410.30;2355.20;;;;;;5091361;28;20046;-82
2021/05/31 09:30:38;;;;;;;5.07;3.35;;;435.20;2355.20;;;;;;5091406;28;20472;-81
2021/05/31 09:33:07;;;;;;;3.90;3.20;;;435.70;2355.20;;;;;;5103952;28;20365;-81
2021/05/31 09:35:33;;;;;;;3.67;2.45;;;435.70;2355.20;;;;;;5094801;28;20024;-81
2021/05/31 09:38:02;;;;;;;4.47;3.45;;;436.00;2355.20;;;;;;5083722;28;20043;-80
2021/05/31 09:40:28;;;;;;;4.63;2.90;;;435.90;2355.20;;;;;;5082722;28;20040;-82
2021/05/31 09:42:57;;;;;;;4.45;2.83;;;435.30;2355.20;;;;;;5080326;28;20017;-85
2021/05/31 09:45:23;;;;;;;4.80;3.42;;;409.70;2355.20;;;;;;5086693;28;20131;-87
2021/05/31 09:47:49;;;;;;;5.53;3.35;;;384.50;2329.60;;;;;;5087102;28;20036;-86
2021/05/31 09:50:28;;;;;;;4.90;3.83;;;384.30;2329.60;;;;;;5087084;28;20032;-85
2021/05/31 09:53:20;;;;;;;6.13;4.03;;;384.30;2329.60;;;;;;5091338;28;20396;-85
2021/05/31 09:55:47;;;;;;;4.82;3.75;;;384.30;2329.60;;;;;;5082680;28;20036;-83
2021/05/31 09:58:17;;;;;;;5.32;4.35;;;384.30;2329.60;;;;;;5088274;28;20072;-82
2021/05/31 10:00:53;;;;;;;6.28;5.13;;;384.40;2329.60;;;;;;5089307;28;20028;-81
2021/05/31 10:06:02;;;;;;;7.85;5.30;;;384.70;2329.60;;;;;;5087959;28;21264;-82
2021/05/31 10:08:40;;;;;;;13.93;7.75;;;384.80;2329.60;;;;;;5089026;28;20047;-81
2021/05/31 10:11:07;;;;;;;7.15;4.35;;;409.70;2355.20;;;;;;5086822;28;20162;-80
2021/05/31 10:13:33;;;;;;;9.00;6.82;;;410.00;2355.20;;;;;;5087095;28;20100;-79
2021/05/31 10:16:02;;;;;;;10.80;7.25;;;410.20;2355.20;;;;;;5088129;28;20023;-81
2021/05/31 10:18:33;;;;;;;7.78;5.65;;;410.20;2355.20;;;;;;5085880;28;20075;-81
2021/05/31 10:20:58;;;;;;;6.90;4.13;;;410.10;2355.20;;;;;;5086487;28;20032;-80
2021/05/31 10:23:24;;;;;;;5.88;3.88;;;409.90;2355.20;;;;;;5083313;28;20027;-80
2021/05/31 10:26:02;;;;;;;8.13;4.60;;;410.20;2355.20;;;;;;5088274;28;20066;-81
2021/05/31 10:28:32;;;;;;;3.38;2.28;;;435.40;2355.20;;;;;;5081936;28;20021;-80
2021/05/31 10:31:04;;;;;;;4.63;3.17;;;461.00;2380.80;;;;;;5087813;28;20127;-79
2021/05/31 10:33:30;;;;;;;4.53;2.53;;;487.10;2380.80;;;;;;5083580;28;20381;-80
2021/05/31 10:36:21;;;;;;;4.35;2.90;;;512.20;2380.80;;;;;;5081889;28;20488;-79
2021/05/31 10:38:51;;;;;;;4.80;3.40;;;512.50;2329.60;;;;;;5083296;28;20488;-81
2021/05/31 10:41:24;;;;;;;4.28;2.55;;;512.10;2380.80;;;;;;5088831;28;20115;-82
2021/05/31 10:43:55;;;;;;;3.75;3.05;;;486.90;2380.80;;;;;;5081373;28;20142;-82
2021/05/31 10:46:35;;;;;;;3.28;2.10;;;487.00;2380.80;;;;;;5083085;28;20017;-82
2021/05/31 10:49:04;;;;;;;6.97;3.63;;;487.10;2380.80;;;;;;5094268;28;20066;-83
2021/05/31 10:51:37;;;;;;;7.97;5.13;;;487.00;2380.80;;;;;;5084441;28;20823;-81
2021/05/31 10:54:12;;;;;;;5.20;2.97;;;487.30;2304.00;;;;;;5080155;28;20077;-81
2021/05/31 10:56:38;;;;;;;8.55;4.57;;;487.10;2355.20;;;;;;5083102;28;20028;-83
2021/05/31 10:59:03;;;;;;;6.82;2.60;;;487.10;2355.20;;;;;;5081290;28;20110;-82
2021/05/31 11:01:32;;;;;;;6.32;2.83;;;487.20;2304.00;;;;;;5079856;28;20070;-82
2021/05/31 11:04:10;;;;;;;5.10;3.13;;;538.00;2176.00;;;;;;5086114;28;20012;-82
2021/05/31 11:06:39;;;;;;;7.40;4.28;;;563.70;2176.00;;;;;;5080409;28;20178;-82
2021/05/31 11:09:34;;;;;;;7.75;4.90;;;538.10;2150.40;;;;;;5084443;28;20067;-82
2021/05/31 11:12:03;;;;;;;6.55;3.90;;;563.30;2099.20;;;;;;5080826;28;20054;-82
2021/05/31 11:14:51;;;;;;;3.03;2.13;;;563.60;2022.40;;;;;;5085388;28;20055;-81
2021/05/31 11:17:18;;;;;;;5.07;2.85;;;538.30;2048.00;;;;;;5082994;28;20411;-83
2021/05/31 11:19:52;;;;;;;2.88;1.98;;;538.10;2099.20;;;;;;5083463;28;20111;-82
2021/05/31 11:22:22;;;;;;;6.38;2.70;;;563.60;2073.60;;;;;;5082998;28;20119;-80
2021/05/31 11:25:03;;;;;;;4.00;2.92;;;564.00;1996.80;;;;;;5082235;28;20020;-81
2021/05/31 11:27:41;;;;;;;4.10;2.33;;;589.10;1996.80;;;;;;5083772;28;20025;-80
2021/05/31 11:30:10;;;;;;;5.60;3.10;;;564.00;1996.80;;;;;;5088520;28;20039;-82
2021/05/31 11:32:37;;;;;;;3.60;2.00;;;563.80;2022.40;;;;;;5082029;28;20028;-82
2021/05/31 11:35:09;;;;;;;5.90;2.38;;;589.50;1945.60;;;;;;5091256;28;20032;-79
2021/05/31 11:37:35;;;;;;;3.30;1.90;;;614.80;1868.80;;;;;;5087311;28;20024;-79
2021/05/31 11:40:04;;;;;;;5.15;2.95;;;615.10;1792.00;;;;;;5083424;28;20506;-78
2021/05/31 11:42:29;;;;;;;3.70;2.38;;;615.30;1792.00;;;;;;5085953;28;20377;-79
2021/05/31 11:44:59;;;;;;;5.72;4.20;;;615.00;1792.00;;;;;;5075831;28;20106;-78
2021/05/31 11:47:27;;;;;;;3.95;2.75;;;615.30;1766.40;;;;;;5087755;28;20085;-78
2021/05/31 11:49:54;;;;;;;4.07;3.10;;;615.20;1740.80;;;;;;5078583;28;20033;-78
2021/05/31 11:52:23;;;;;;;2.85;2.03;;;615.20;1740.80;;;;;;5090182;28;20020;-79
2021/05/31 11:54:49;;;;;;;3.85;2.35;;;615.20;1740.80;;;;;;5088685;28;20055;-79
2021/05/31 11:57:21;;;;;;;4.10;1.85;;;614.90;1715.20;;;;;;5084527;28;20025;-79
2021/05/31 11:59:50;;;;;;;4.28;2.30;;;589.50;1766.40;;;;;;5101153;28;20110;-79
2021/05/31 12:02:18;;;;;;;5.07;2.97;;;589.00;1843.20;;;;;;5106282;28;20107;-80
2021/05/31 12:04:49;;;;;;;3.05;2.20;;;563.30;1971.20;;;;;;5089298;28;20024;-78
2021/05/31 12:07:24;;;;;;;4.78;2.40;;;538.00;2022.40;;;;;;5085312;28;20047;-78
2021/05/31 12:09:51;;;;;;;3.75;2.53;;;512.60;2099.20;;;;;;5079888;28;20032;-78
2021/05/31 12:12:21;;;;;;;5.30;2.85;;;512.00;2227.20;;;;;;5081885;28;20051;-78
2021/05/31 12:14:48;;;;;;;3.33;2.30;;;487.10;2278.40;;;;;;5089062;28;20085;-79
2021/05/31 12:17:15;;;;;;;5.25;2.47;;;486.90;2304.00;;;;;;5068949;28;20017;-79
2021/05/31 12:19:42;;;;;;;4.82;2.45;;;486.70;2304.00;;;;;;5068037;28;20031;-78
2021/05/31 12:22:09;;;;;;;3.55;2.30;;;487.00;2278.40;;;;;;5077394;28;20494;-79
2021/05/31 12:24:38;;;;;;;3.95;2.00;;;512.10;2227.20;;;;;;5085374;28;20376;-78
2021/05/31 12:27:04;;;;;;;4.40;2.05;;;537.90;2124.80;;;;;;5070138;28;20642;-79
2021/05/31 12:29:52;;;;;;;3.00;2.53;;;563.40;2048.00;;;;;;5097058;28;20024;-78
2021/05/31 12:32:20;;;;;;;2.65;1.92;;;564.00;1996.80;;;;;;5088836;28;20090;-77
2021/05/31 12:34:46;;;;;;;2.40;1.77;;;563.30;1996.80;;;;;;5090060;28;20731;-78
2021/05/31 12:37:16;;;;;;;2.63;2.17;;;563.20;2048.00;;;;;;5093742;28;20816;-78
2021/05/31 12:39:47;;;;;;;3.95;2.20;;;589.50;1920.00;;;;;;5092684;28;20036;-77
2021/05/31 12:42:18;;;;;;;5.43;2.28;;;614.50;1868.80;;;;;;5090133;28;20071;-77